Time,TemperatureF,DewpointF,PressureIn,WindDirection,WindDirectionDegrees,WindSpeedMPH,WindSpeedGustMPH,Humidity,HourlyPrecipIn,Conditions,Clouds,dailyrainin,SoftwareType,DateUTC
2013-09-04 00:02:00,61.0,57.4,29.86,WNW,285,0.0,0.0,88,0.00,,,0.00,meteobridge,2013-09-04 04:02:00,
2013-09-04 00:06:00,60.6,57.4,29.86,WNW,285,0.0,0.0,89,0.00,,,0.00,meteobridge,2013-09-04 04:06:00,
2013-09-04 00:12:00,60.6,57.4,29.85,NNW,347,0.0,0.0,89,0.00,,,0.00,meteobridge,2013-09-04 04:12:00,
2013-09-04 00:14:00,60.6,57.4,29.85,NW,326,0.0,0.0,89,0.00,,,0.00,meteobridge,2013-09-04 04:14:00,
2013-09-04 00:17:00,60.4,57.2,29.85,ENE,69,0.0,2.0,89,0.00,,,0.00,meteobridge,2013-09-04 04:17:00,
2013-09-04 00:19:00,60.6,57.4,29.85,NNW,343,0.9,0.9,89,0.00,,,0.00,meteobridge,2013-09-04 04:19:00,
2013-09-04 00:25:00,60.4,57.2,29.85,West,279,0.0,0.0,89,0.00,,,0.00,meteobridge,2013-09-04 04:25:00,
2013-09-04 00:31:00,60.4,57.2,29.85,WNW,290,0.0,0.0,89,0.00,,,0.00,meteobridge,2013-09-04 04:31:00,
2013-09-04 00:37:00,60.4,57.2,29.85,North,355,0.0,0.9,89,0.00,,,0.00,meteobridge,2013-09-04 04:37:00,
2013-09-04 00:43:00,60.4,57.2,29.85,WNW,283,0.0,0.0,89,0.00,,,0.00,meteobridge,2013-09-04 04:43:00,
2013-09-04 00:50:00,60.4,57.2,29.85,North,7,0.0,0.0,89,0.00,,,0.00,meteobridge,2013-09-04 04:50:00,
2013-09-04 00:54:00,60.4,57.2,29.85,NNW,340,0.0,0.0,89,0.00,,,0.00,meteobridge,2013-09-04 04:54:00,
2013-09-04 01:00:00,60.4,57.2,29.85,NW,320,0.0,0.9,89,0.00,,,0.00,meteobridge,2013-09-04 05:00:00,
2013-09-04 01:06:00,60.3,57.0,29.86,NE,44,0.0,2.0,89,0.00,,,0.00,meteobridge,2013-09-04 05:06:00,
2013-09-04 01:13:00,60.3,57.4,29.86,East,94,0.0,0.0,90,0.00,,,0.00,meteobridge,2013-09-04 05:13:00,
2013-09-04 01:19:00,60.3,57.4,29.86,NNE,30,0.0,2.9,90,0.00,,,0.00,meteobridge,2013-09-04 05:19:00,
2013-09-04 01:25:00,60.3,57.4,29.86,WNW,301,0.0,0.9,90,0.00,,,0.00,meteobridge,2013-09-04 05:25:00,
2013-09-04 01:31:00,60.3,57.4,29.86,North,0,0.0,0.0,90,0.00,,,0.00,meteobridge,2013-09-04 05:31:00,
2013-09-04 01:37:00,60.1,57.2,29.86,NNW,346,0.0,2.0,90,0.00,,,0.00,meteobridge,2013-09-04 05:37:00,
2013-09-04 01:44:00,60.1,57.2,29.87,NE,39,0.0,0.0,90,0.00,,,0.00,meteobridge,2013-09-04 05:44:00,
2013-09-04 01:50:00,59.9,57.0,29.87,NNW,347,0.0,0.0,90,0.00,,,0.00,meteobridge,2013-09-04 05:50:00,
2013-09-04 01:56:00,59.7,56.8,29.87,NNW,345,0.0,0.0,90,0.00,,,0.00,meteobridge,2013-09-04 05:56:00,
2013-09-04 02:03:00,59.5,56.8,29.87,NW,322,0.0,0.0,91,0.00,,,0.00,meteobridge,2013-09-04 06:03:00,
2013-09-04 02:09:00,59.4,56.7,29.87,NW,321,0.0,0.0,91,0.00,,,0.00,meteobridge,2013-09-04 06:09:00,
2013-09-04 02:15:00,59.2,56.5,29.87,NW,320,0.0,0.0,91,0.00,,,0.00,meteobridge,2013-09-04 06:15:00,
2013-09-04 02:21:00,59.0,56.3,29.88,NW,321,0.0,0.0,91,0.00,,,0.00,meteobridge,2013-09-04 06:21:00,
2013-09-04 02:28:00,58.6,56.3,29.88,NW,320,0.0,0.0,92,0.00,,,0.00,meteobridge,2013-09-04 06:28:00,
2013-09-04 02:34:00,58.5,56.1,29.88,NW,320,0.0,0.0,92,0.00,,,0.00,meteobridge,2013-09-04 06:34:00,
2013-09-04 02:41:00,58.3,55.9,29.88,NW,321,0.0,0.0,92,0.00,,,0.00,meteobridge,2013-09-04 06:41:00,
2013-09-04 02:47:00,58.1,55.8,29.88,NW,321,0.0,0.0,92,0.00,,,0.00,meteobridge,2013-09-04 06:47:00,
2013-09-04 02:53:00,57.9,55.6,29.88,NW,321,0.0,0.0,92,0.00,,,0.00,meteobridge,2013-09-04 06:53:00,
2013-09-04 02:59:00,57.9,55.9,29.88,NW,320,0.0,0.0,93,0.00,,,0.00,meteobridge,2013-09-04 06:59:00,
2013-09-04 03:06:00,58.1,56.1,29.88,NW,321,0.0,0.0,93,0.00,,,0.00,meteobridge,2013-09-04 07:06:00,
2013-09-04 03:12:00,58.3,56.3,29.88,NW,320,0.0,0.0,93,0.00,,,0.00,meteobridge,2013-09-04 07:12:00,
2013-09-04 03:18:00,58.3,55.9,29.89,NW,316,0.0,0.0,92,0.00,,,0.00,meteobridge,2013-09-04 07:18:00,
2013-09-04 03:25:00,58.3,55.9,29.89,North,8,0.0,0.0,92,0.00,,,0.00,meteobridge,2013-09-04 07:25:00,
2013-09-04 03:31:00,58.3,55.9,29.89,West,277,0.0,0.0,92,0.00,,,0.00,meteobridge,2013-09-04 07:31:00,
2013-09-04 03:37:00,58.6,56.3,29.89,West,261,0.0,0.0,92,0.00,,,0.00,meteobridge,2013-09-04 07:37:00,
2013-09-04 03:44:00,58.6,56.3,29.89,West,269,0.0,0.0,92,0.00,,,0.00,meteobridge,2013-09-04 07:44:00,
2013-09-04 03:50:00,58.8,56.5,29.89,West,262,0.0,0.0,92,0.00,,,0.00,meteobridge,2013-09-04 07:50:00,
2013-09-04 03:56:00,58.8,56.5,29.89,WNW,284,0.0,0.0,92,0.00,,,0.00,meteobridge,2013-09-04 07:56:00,
2013-09-04 04:03:00,58.8,56.5,29.89,NNE,24,0.0,0.0,92,0.00,,,0.00,meteobridge,2013-09-04 08:03:00,
2013-09-04 04:09:00,58.6,56.3,29.89,North,0,0.0,0.0,92,0.00,,,0.00,meteobridge,2013-09-04 08:09:00,
2013-09-04 04:15:00,58.5,56.1,29.89,NW,311,0.0,0.0,92,0.00,,,0.00,meteobridge,2013-09-04 08:15:00,
2013-09-04 04:22:00,58.5,56.1,29.89,NW,317,0.0,2.0,92,0.00,,,0.00,meteobridge,2013-09-04 08:22:00,
2013-09-04 04:28:00,58.5,56.1,29.90,WSW,252,0.0,0.0,92,0.00,,,0.00,meteobridge,2013-09-04 08:28:00,
2013-09-04 04:34:00,58.3,55.9,29.90,North,357,0.0,0.9,92,0.00,,,0.00,meteobridge,2013-09-04 08:34:00,
2013-09-04 04:40:00,58.3,55.9,29.90,North,9,2.0,2.0,92,0.00,,,0.00,meteobridge,2013-09-04 08:40:00,
2013-09-04 04:46:00,58.3,55.9,29.90,West,259,0.0,0.9,92,0.00,,,0.00,meteobridge,2013-09-04 08:46:00,
2013-09-04 04:52:00,58.1,55.8,29.90,NW,317,0.0,0.9,92,0.00,,,0.00,meteobridge,2013-09-04 08:52:00,
2013-09-04 04:59:00,57.9,55.6,29.90,NNW,328,0.0,0.0,92,0.00,,,0.00,meteobridge,2013-09-04 08:59:00,
2013-09-04 05:05:00,57.7,55.4,29.90,NW,319,0.9,0.9,92,0.00,,,0.00,meteobridge,2013-09-04 09:05:00,
2013-09-04 05:11:00,57.9,55.6,29.91,West,259,0.0,0.0,92,0.00,,,0.00,meteobridge,2013-09-04 09:11:00,
2013-09-04 05:17:00,57.7,55.4,29.91,NNE,21,0.0,0.9,92,0.00,,,0.00,meteobridge,2013-09-04 09:17:00,
2013-09-04 05:24:00,57.7,55.4,29.91,NW,307,0.0,0.0,92,0.00,,,0.00,meteobridge,2013-09-04 09:24:00,
2013-09-04 05:30:00,57.6,55.6,29.91,NNW,328,0.0,0.9,93,0.00,,,0.00,meteobridge,2013-09-04 09:30:00,
2013-09-04 05:36:00,57.6,55.6,29.91,NW,314,0.0,0.0,93,0.00,,,0.00,meteobridge,2013-09-04 09:36:00,
2013-09-04 05:43:00,57.6,55.6,29.91,NW,306,0.0,0.0,93,0.00,,,0.00,meteobridge,2013-09-04 09:43:00,
2013-09-04 05:49:00,57.4,55.4,29.91,NW,323,0.0,0.0,93,0.00,,,0.00,meteobridge,2013-09-04 09:49:00,
2013-09-04 05:55:00,57.4,55.0,29.92,WNW,294,0.0,0.0,92,0.00,,,0.00,meteobridge,2013-09-04 09:55:00,
2013-09-04 06:01:00,57.2,55.2,29.92,WNW,294,0.0,0.0,93,0.00,,,0.00,meteobridge,2013-09-04 10:01:00,
2013-09-04 06:08:00,57.0,55.0,29.93,WNW,295,0.0,0.0,93,0.00,,,0.00,meteobridge,2013-09-04 10:08:00,
2013-09-04 06:14:00,56.7,54.7,29.93,WNW,294,0.0,0.0,93,0.00,,,0.00,meteobridge,2013-09-04 10:14:00,
2013-09-04 06:21:00,56.5,54.5,29.93,WNW,294,0.0,0.0,93,0.00,,,0.00,meteobridge,2013-09-04 10:21:00,
2013-09-04 06:27:00,56.1,54.1,29.93,NNW,340,0.0,0.0,93,0.00,,,0.00,meteobridge,2013-09-04 10:27:00,
2013-09-04 06:33:00,56.3,54.3,29.93,NNW,340,0.0,0.0,93,0.00,,,0.00,meteobridge,2013-09-04 10:33:00,
2013-09-04 06:40:00,56.1,54.1,29.93,NNW,340,0.0,0.0,93,0.00,,,0.00,meteobridge,2013-09-04 10:40:00,
2013-09-04 06:46:00,56.5,54.5,29.93,West,281,0.0,0.0,93,0.00,,,0.00,meteobridge,2013-09-04 10:46:00,
2013-09-04 06:52:00,56.7,54.7,29.93,SW,232,0.0,0.0,93,0.00,,,0.00,meteobridge,2013-09-04 10:52:00,
2013-09-04 06:58:00,56.8,54.9,29.94,West,276,0.0,0.0,93,0.00,,,0.00,meteobridge,2013-09-04 10:58:00,
2013-09-04 07:05:00,57.4,55.0,29.95,North,354,2.0,2.9,92,0.00,,,0.00,meteobridge,2013-09-04 11:05:00,
2013-09-04 07:11:00,57.6,55.2,29.95,NNW,329,0.0,0.9,92,0.00,,,0.00,meteobridge,2013-09-04 11:11:00,
2013-09-04 07:17:00,57.7,55.4,29.95,NNW,329,0.0,0.0,92,0.00,,,0.00,meteobridge,2013-09-04 11:17:00,
2013-09-04 07:23:00,57.9,55.6,29.95,NNW,329,0.0,0.0,92,0.00,,,0.00,meteobridge,2013-09-04 11:23:00,
2013-09-04 07:29:00,58.3,55.9,29.96,WNW,297,0.0,0.0,92,0.00,,,0.00,meteobridge,2013-09-04 11:29:00,
2013-09-04 07:36:00,58.6,55.9,29.95,North,8,0.9,2.0,91,0.00,,,0.00,meteobridge,2013-09-04 11:36:00,
2013-09-04 07:42:00,59.0,56.3,29.95,NW,322,0.0,0.9,91,0.00,,,0.00,meteobridge,2013-09-04 11:42:00,
2013-09-04 07:48:00,59.2,56.3,29.96,WSW,240,0.0,2.0,90,0.00,,,0.00,meteobridge,2013-09-04 11:48:00,
2013-09-04 07:54:00,59.4,56.5,29.96,NNW,335,0.0,0.9,90,0.00,,,0.00,meteobridge,2013-09-04 11:54:00,
2013-09-04 08:00:00,59.4,56.5,29.96,WNW,300,0.0,0.0,90,0.00,,,0.00,meteobridge,2013-09-04 12:00:00,
2013-09-04 08:07:00,59.5,56.7,29.96,NNW,347,0.0,0.0,90,0.00,,,0.00,meteobridge,2013-09-04 12:07:00,
2013-09-04 08:13:00,59.7,56.8,29.96,North,358,0.0,0.0,90,0.00,,,0.00,meteobridge,2013-09-04 12:13:00,
2013-09-04 08:19:00,60.1,57.2,29.97,WSW,252,0.0,0.0,90,0.00,,,0.00,meteobridge,2013-09-04 12:19:00,
2013-09-04 08:26:00,60.3,57.0,29.97,NNW,344,0.0,0.9,89,0.00,,,0.00,meteobridge,2013-09-04 12:26:00,
2013-09-04 08:32:00,60.4,56.8,29.97,North,1,2.9,2.9,88,0.00,,,0.00,meteobridge,2013-09-04 12:32:00,
2013-09-04 08:38:00,60.8,57.2,29.97,NNW,332,0.0,0.9,88,0.00,,,0.00,meteobridge,2013-09-04 12:38:00,
2013-09-04 08:44:00,61.0,56.8,29.97,West,269,0.9,2.9,86,0.00,,,0.00,meteobridge,2013-09-04 12:44:00,
2013-09-04 08:51:00,61.2,56.7,29.97,NNE,13,0.0,0.9,85,0.00,,,0.00,meteobridge,2013-09-04 12:51:00,
2013-09-04 08:57:00,61.3,57.2,29.97,WNW,284,0.0,0.9,86,0.00,,,0.00,meteobridge,2013-09-04 12:57:00,
2013-09-04 09:03:00,61.5,57.0,29.96,West,262,2.0,4.0,85,0.00,,,0.00,meteobridge,2013-09-04 13:03:00,
2013-09-04 09:09:00,61.9,57.4,29.97,NNW,333,0.9,2.9,85,0.00,,,0.00,meteobridge,2013-09-04 13:09:00,
2013-09-04 09:16:00,62.1,56.8,29.97,WNW,288,0.0,4.0,83,0.00,,,0.00,meteobridge,2013-09-04 13:16:00,
2013-09-04 09:22:00,62.4,57.2,29.97,NNE,29,0.0,2.9,83,0.00,,,0.00,meteobridge,2013-09-04 13:22:00,
2013-09-04 09:28:00,63.0,57.7,29.97,NW,309,2.9,4.9,83,0.00,,,0.00,meteobridge,2013-09-04 13:28:00,
2013-09-04 09:34:00,63.5,57.6,29.97,WNW,298,2.9,4.0,81,0.00,,,0.00,meteobridge,2013-09-04 13:34:00,
2013-09-04 09:40:00,64.0,57.7,29.97,NNW,342,0.9,2.9,80,0.00,,,0.00,meteobridge,2013-09-04 13:40:00,
2013-09-04 09:46:00,64.8,58.1,29.96,WSW,256,0.9,2.0,79,0.00,,,0.00,meteobridge,2013-09-04 13:46:00,
2013-09-04 09:52:00,65.5,57.7,29.96,NNW,342,0.9,2.0,76,0.00,,,0.00,meteobridge,2013-09-04 13:52:00,
2013-09-04 09:59:00,66.4,58.3,29.96,WSW,250,0.0,0.9,75,0.00,,,0.00,meteobridge,2013-09-04 13:59:00,
2013-09-04 10:05:00,67.3,57.9,29.96,NNE,12,0.0,2.0,72,0.00,,,0.00,meteobridge,2013-09-04 14:05:00,
2013-09-04 10:11:00,67.5,57.0,29.96,WNW,298,0.9,4.0,69,0.00,,,0.00,meteobridge,2013-09-04 14:11:00,
2013-09-04 10:17:00,67.8,57.7,29.96,WNW,288,0.9,0.9,70,0.00,,,0.00,meteobridge,2013-09-04 14:17:00,
2013-09-04 10:23:00,68.4,57.7,29.96,ENE,74,0.9,6.0,69,0.00,,,0.00,meteobridge,2013-09-04 14:23:00,
2013-09-04 10:29:00,68.5,57.9,29.96,WNW,300,4.9,4.9,69,0.00,,,0.00,meteobridge,2013-09-04 14:29:00,
2013-09-04 10:35:00,68.5,57.6,29.96,NW,323,2.9,4.9,68,0.00,,,0.00,meteobridge,2013-09-04 14:35:00,
2013-09-04 10:41:00,68.5,57.6,29.96,WNW,294,2.9,2.9,68,0.00,,,0.00,meteobridge,2013-09-04 14:41:00,
2013-09-04 10:48:00,69.3,57.9,29.96,NNE,30,2.0,4.0,67,0.00,,,0.00,meteobridge,2013-09-04 14:48:00,
2013-09-04 10:54:00,69.3,58.3,29.96,North,4,0.9,4.9,68,0.00,,,0.00,meteobridge,2013-09-04 14:54:00,
2013-09-04 11:00:00,70.2,59.2,29.96,ESE,112,0.0,0.0,68,0.00,,,0.00,meteobridge,2013-09-04 15:00:00,
2013-09-04 11:06:00,70.7,58.3,29.96,NNE,19,8.1,8.1,65,0.00,,,0.00,meteobridge,2013-09-04 15:06:00,
2013-09-04 11:12:00,70.2,57.9,29.96,NW,314,6.9,6.9,65,0.00,,,0.00,meteobridge,2013-09-04 15:12:00,
2013-09-04 11:18:00,70.2,58.3,29.95,SE,129,0.0,4.9,66,0.00,,,0.00,meteobridge,2013-09-04 15:18:00,
2013-09-04 11:24:00,70.5,58.6,29.95,NNE,18,0.0,4.9,66,0.00,,,0.00,meteobridge,2013-09-04 15:24:00,
2013-09-04 11:30:00,71.1,58.3,29.96,NNW,332,4.9,6.9,64,0.00,,,0.00,meteobridge,2013-09-04 15:30:00,
2013-09-04 11:36:00,70.9,58.5,29.95,NW,322,0.0,6.0,65,0.00,,,0.00,meteobridge,2013-09-04 15:36:00,
2013-09-04 11:43:00,71.2,58.5,29.95,NW,321,2.0,6.0,64,0.00,,,0.00,meteobridge,2013-09-04 15:43:00,
2013-09-04 11:49:00,71.6,58.8,29.95,NNE,15,2.9,6.0,64,0.00,,,0.00,meteobridge,2013-09-04 15:49:00,
2013-09-04 11:55:00,71.8,59.7,29.96,WSW,240,4.0,4.9,66,0.00,,,0.00,meteobridge,2013-09-04 15:55:00,
2013-09-04 12:01:00,71.6,58.8,29.95,NW,311,2.0,4.9,64,0.00,,,0.00,meteobridge,2013-09-04 16:01:00,
2013-09-04 12:07:00,71.8,59.7,29.95,WSW,253,0.0,2.9,66,0.00,,,0.00,meteobridge,2013-09-04 16:07:00,
2013-09-04 12:13:00,72.3,58.6,29.95,ESE,103,0.9,6.0,62,0.00,,,0.00,meteobridge,2013-09-04 16:13:00,
2013-09-04 12:19:00,72.5,59.2,29.95,ESE,105,0.9,4.0,63,0.00,,,0.00,meteobridge,2013-09-04 16:19:00,
2013-09-04 12:25:00,72.7,59.7,29.95,West,271,2.0,6.0,64,0.00,,,0.00,meteobridge,2013-09-04 16:25:00,
2013-09-04 12:32:00,72.9,59.0,29.95,West,274,4.9,4.9,62,0.00,,,0.00,meteobridge,2013-09-04 16:32:00,
2013-09-04 12:38:00,73.0,59.2,29.95,WSW,246,2.0,6.0,62,0.00,,,0.00,meteobridge,2013-09-04 16:38:00,
2013-09-04 12:44:00,73.6,59.4,29.95,NNE,23,0.0,6.9,61,0.00,,,0.00,meteobridge,2013-09-04 16:44:00,
2013-09-04 12:50:00,73.8,58.5,29.95,SSE,160,2.9,6.0,59,0.00,,,0.00,meteobridge,2013-09-04 16:50:00,
2013-09-04 12:56:00,73.9,59.7,29.95,NNE,31,2.0,4.9,61,0.00,,,0.00,meteobridge,2013-09-04 16:56:00,
2013-09-04 13:02:00,74.7,59.9,29.94,North,354,6.9,6.9,60,0.00,,,0.00,meteobridge,2013-09-04 17:02:00,
2013-09-04 13:08:00,74.7,60.8,29.94,North,10,2.0,6.0,62,0.00,,,0.00,meteobridge,2013-09-04 17:08:00,
2013-09-04 13:14:00,74.8,59.0,29.94,NW,323,2.0,6.0,58,0.00,,,0.00,meteobridge,2013-09-04 17:14:00,
2013-09-04 13:20:00,74.8,59.5,29.94,WNW,285,4.0,6.9,59,0.00,,,0.00,meteobridge,2013-09-04 17:20:00,
2013-09-04 13:26:00,75.0,59.7,29.94,South,190,0.9,4.9,59,0.00,,,0.00,meteobridge,2013-09-04 17:26:00,
2013-09-04 13:32:00,75.6,59.7,29.94,NE,54,0.9,6.0,58,0.00,,,0.00,meteobridge,2013-09-04 17:32:00,
2013-09-04 13:39:00,76.1,59.7,29.94,WNW,285,2.9,6.9,57,0.00,,,0.00,meteobridge,2013-09-04 17:39:00,
2013-09-04 13:45:00,76.3,61.0,29.93,WNW,288,2.0,4.0,59,0.00,,,0.00,meteobridge,2013-09-04 17:45:00,
2013-09-04 13:51:00,76.1,59.2,29.93,SW,228,4.9,8.1,56,0.00,,,0.00,meteobridge,2013-09-04 17:51:00,
2013-09-04 13:57:00,76.1,59.7,29.93,WNW,283,2.0,4.9,57,0.00,,,0.00,meteobridge,2013-09-04 17:57:00,
2013-09-04 14:03:00,75.6,59.7,29.93,WSW,257,0.9,2.0,58,0.00,,,0.00,meteobridge,2013-09-04 18:03:00,
2013-09-04 14:09:00,75.7,59.9,29.93,NW,321,0.9,6.9,58,0.00,,,0.00,meteobridge,2013-09-04 18:09:00,
2013-09-04 14:15:00,76.8,59.4,29.93,WNW,302,4.0,4.9,55,0.00,,,0.00,meteobridge,2013-09-04 18:15:00,
2013-09-04 14:21:00,77.0,58.6,29.93,West,271,2.9,6.0,53,0.00,,,0.00,meteobridge,2013-09-04 18:21:00,
2013-09-04 14:27:00,77.2,58.6,29.93,West,273,2.9,4.9,53,0.00,,,0.00,meteobridge,2013-09-04 18:27:00,
2013-09-04 14:33:00,77.5,60.1,29.93,South,186,0.0,2.0,55,0.00,,,0.00,meteobridge,2013-09-04 18:33:00,
2013-09-04 14:40:00,78.4,60.4,29.93,WNW,303,0.9,2.0,54,0.00,,,0.00,meteobridge,2013-09-04 18:40:00,
2013-09-04 14:46:00,79.0,59.9,29.93,East,83,0.9,2.0,52,0.00,,,0.00,meteobridge,2013-09-04 18:46:00,
2013-09-04 14:52:00,79.5,59.2,29.93,North,5,0.9,2.0,50,0.00,,,0.00,meteobridge,2013-09-04 18:52:00,
2013-09-04 14:58:00,79.2,58.3,29.93,NNW,328,0.9,4.0,49,0.00,,,0.00,meteobridge,2013-09-04 18:58:00,
2013-09-04 15:04:00,78.4,55.9,29.93,ENE,63,2.9,8.1,46,0.00,,,0.00,meteobridge,2013-09-04 19:04:00,
2013-09-04 15:10:00,78.6,56.1,29.92,West,278,2.9,6.0,46,0.00,,,0.00,meteobridge,2013-09-04 19:10:00,
2013-09-04 15:16:00,78.4,55.9,29.92,North,1,2.0,6.9,46,0.00,,,0.00,meteobridge,2013-09-04 19:16:00,
2013-09-04 15:23:00,79.0,56.5,29.92,West,271,2.0,4.0,46,0.00,,,0.00,meteobridge,2013-09-04 19:23:00,
2013-09-04 15:29:00,78.8,58.6,29.92,NNE,21,0.0,2.9,50,0.00,,,0.00,meteobridge,2013-09-04 19:29:00,
2013-09-04 15:35:00,79.2,59.5,29.92,SW,219,0.0,2.9,51,0.00,,,0.00,meteobridge,2013-09-04 19:35:00,
2013-09-04 15:41:00,79.2,59.0,29.92,NE,56,6.0,6.0,50,0.00,,,0.00,meteobridge,2013-09-04 19:41:00,
2013-09-04 15:47:00,79.3,58.5,29.92,NNE,16,2.0,4.9,49,0.00,,,0.00,meteobridge,2013-09-04 19:47:00,
2013-09-04 15:53:00,79.7,59.9,29.92,WSW,257,2.9,4.9,51,0.00,,,0.00,meteobridge,2013-09-04 19:53:00,
2013-09-04 16:00:00,79.3,59.7,29.92,NNE,31,2.9,4.9,51,0.00,,,0.00,meteobridge,2013-09-04 20:00:00,
2013-09-04 16:06:00,78.8,59.7,29.92,WNW,295,0.9,6.9,52,0.00,,,0.00,meteobridge,2013-09-04 20:06:00,
2013-09-04 16:12:00,79.0,59.4,29.92,North,350,4.0,8.9,51,0.00,,,0.00,meteobridge,2013-09-04 20:12:00,
2013-09-04 16:18:00,78.8,59.2,29.92,East,86,0.0,2.0,51,0.00,,,0.00,meteobridge,2013-09-04 20:18:00,
2013-09-04 16:24:00,79.2,59.5,29.92,NW,321,4.0,6.9,51,0.00,,,0.00,meteobridge,2013-09-04 20:24:00,
2013-09-04 16:31:00,78.8,59.2,29.92,WNW,283,4.0,6.0,51,0.00,,,0.00,meteobridge,2013-09-04 20:31:00,
2013-09-04 16:37:00,78.6,59.0,29.92,WNW,290,2.0,4.9,51,0.00,,,0.00,meteobridge,2013-09-04 20:37:00,
2013-09-04 16:43:00,78.3,59.2,29.92,West,263,0.9,2.9,52,0.00,,,0.00,meteobridge,2013-09-04 20:43:00,
2013-09-04 16:49:00,78.3,58.6,29.92,NW,309,4.0,4.9,51,0.00,,,0.00,meteobridge,2013-09-04 20:49:00,
2013-09-04 16:55:00,78.1,59.0,29.92,West,259,2.0,2.9,52,0.00,,,0.00,meteobridge,2013-09-04 20:55:00,
2013-09-04 17:01:00,78.1,59.5,29.92,WNW,301,0.9,2.9,53,0.00,,,0.00,meteobridge,2013-09-04 21:01:00,
2013-09-04 17:07:00,78.4,59.4,29.92,West,263,0.9,2.9,52,0.00,,,0.00,meteobridge,2013-09-04 21:07:00,
2013-09-04 17:13:00,78.3,59.2,29.92,SW,233,4.9,6.0,52,0.00,,,0.00,meteobridge,2013-09-04 21:13:00,
2013-09-04 17:20:00,78.1,59.5,29.92,NNE,14,0.9,2.9,53,0.00,,,0.00,meteobridge,2013-09-04 21:20:00,
2013-09-04 17:26:00,77.7,59.2,29.92,West,281,6.0,6.0,53,0.00,,,0.00,meteobridge,2013-09-04 21:26:00,
2013-09-04 17:32:00,77.4,58.8,29.92,NW,310,0.9,6.0,53,0.00,,,0.00,meteobridge,2013-09-04 21:32:00,
2013-09-04 17:38:00,77.2,59.2,29.92,WNW,283,0.0,2.9,54,0.00,,,0.00,meteobridge,2013-09-04 21:38:00,
2013-09-04 17:44:00,77.4,58.8,29.92,NW,316,0.9,6.0,53,0.00,,,0.00,meteobridge,2013-09-04 21:44:00,
2013-09-04 17:51:00,77.4,59.9,29.92,SW,233,0.0,2.0,55,0.00,,,0.00,meteobridge,2013-09-04 21:51:00,
2013-09-04 17:57:00,77.4,59.9,29.92,WSW,257,0.9,2.9,55,0.00,,,0.00,meteobridge,2013-09-04 21:57:00,
2013-09-04 18:03:00,77.5,60.1,29.91,NNW,342,0.0,2.0,55,0.00,,,0.00,meteobridge,2013-09-04 22:03:00,
2013-09-04 18:09:00,77.4,59.9,29.91,West,273,0.0,4.0,55,0.00,,,0.00,meteobridge,2013-09-04 22:09:00,
2013-09-04 18:15:00,76.5,60.1,29.91,WNW,289,0.9,2.9,57,0.00,,,0.00,meteobridge,2013-09-04 22:15:00,
2013-09-04 18:22:00,75.6,60.3,29.91,NW,314,0.0,2.9,59,0.00,,,0.00,meteobridge,2013-09-04 22:22:00,
2013-09-04 18:28:00,74.8,60.4,29.91,North,350,0.9,0.9,61,0.00,,,0.00,meteobridge,2013-09-04 22:28:00,
2013-09-04 18:34:00,74.1,60.3,29.91,West,262,0.0,2.0,62,0.00,,,0.00,meteobridge,2013-09-04 22:34:00,
2013-09-04 18:40:00,73.6,60.3,29.91,WSW,250,0.0,0.0,63,0.00,,,0.00,meteobridge,2013-09-04 22:40:00,
2013-09-04 18:47:00,73.0,60.6,29.91,WSW,249,0.0,0.9,65,0.00,,,0.00,meteobridge,2013-09-04 22:47:00,
2013-09-04 18:53:00,72.7,60.3,29.91,West,264,0.0,2.9,65,0.00,,,0.00,meteobridge,2013-09-04 22:53:00,
2013-09-04 18:59:00,72.1,61.0,29.91,West,281,0.0,0.9,68,0.00,,,0.00,meteobridge,2013-09-04 22:59:00,
2013-09-04 19:06:00,71.8,61.5,29.91,NNE,18,0.0,0.9,70,0.00,,,0.00,meteobridge,2013-09-04 23:06:00,
2013-09-04 19:12:00,71.2,60.6,29.91,WNW,288,0.0,0.0,69,0.00,,,0.00,meteobridge,2013-09-04 23:12:00,
2013-09-04 19:18:00,70.7,60.8,29.91,SW,218,0.0,2.9,71,0.00,,,0.00,meteobridge,2013-09-04 23:18:00,
2013-09-04 19:25:00,70.3,60.8,29.91,WNW,298,0.0,0.9,72,0.00,,,0.00,meteobridge,2013-09-04 23:25:00,
2013-09-04 19:31:00,70.0,61.0,29.91,NNE,30,0.0,0.9,73,0.00,,,0.00,meteobridge,2013-09-04 23:31:00,
2013-09-04 19:37:00,69.4,60.4,29.91,West,281,0.9,2.0,73,0.00,,,0.00,meteobridge,2013-09-04 23:37:00,
2013-09-04 19:43:00,69.1,60.4,29.92,NW,315,0.0,0.0,74,0.00,,,0.00,meteobridge,2013-09-04 23:43:00,
2013-09-04 19:49:00,68.7,60.4,29.92,NNW,344,0.9,0.9,75,0.00,,,0.00,meteobridge,2013-09-04 23:49:00,
2013-09-04 19:55:00,68.5,60.3,29.92,NW,323,0.0,0.0,75,0.00,,,0.00,meteobridge,2013-09-04 23:55:00,
2013-09-04 20:02:00,68.0,60.1,29.92,NW,323,0.0,0.0,76,0.00,,,0.00,meteobridge,2013-09-05 00:02:00,
2013-09-04 20:08:00,67.6,60.6,29.92,WNW,301,0.0,0.0,78,0.00,,,0.00,meteobridge,2013-09-05 00:08:00,
2013-09-04 20:14:00,67.1,59.7,29.92,WNW,300,0.0,0.0,77,0.00,,,0.00,meteobridge,2013-09-05 00:14:00,
2013-09-04 20:21:00,66.7,59.7,29.93,WNW,300,0.0,0.0,78,0.00,,,0.00,meteobridge,2013-09-05 00:21:00,
2013-09-04 20:27:00,66.4,59.7,29.93,WNW,301,0.0,0.0,79,0.00,,,0.00,meteobridge,2013-09-05 00:27:00,
2013-09-04 20:34:00,66.2,59.9,29.93,West,269,0.0,0.0,80,0.00,,,0.00,meteobridge,2013-09-05 00:34:00,
2013-09-04 20:40:00,66.0,60.1,29.93,West,269,0.0,0.0,81,0.00,,,0.00,meteobridge,2013-09-05 00:40:00,
2013-09-04 20:46:00,65.8,59.5,29.93,West,269,0.0,0.0,80,0.00,,,0.00,meteobridge,2013-09-05 00:46:00,
2013-09-04 20:53:00,65.7,59.7,29.93,West,269,0.0,0.0,81,0.00,,,0.00,meteobridge,2013-09-05 00:53:00,
2013-09-04 20:59:00,65.1,59.5,29.93,West,269,0.0,0.0,82,0.00,,,0.00,meteobridge,2013-09-05 00:59:00,
2013-09-04 21:06:00,64.9,59.0,29.93,West,269,0.0,0.0,81,0.00,,,0.00,meteobridge,2013-09-05 01:06:00,
2013-09-04 21:12:00,64.9,59.4,29.94,West,269,0.0,0.0,82,0.00,,,0.00,meteobridge,2013-09-05 01:12:00,
2013-09-04 21:18:00,65.1,59.9,29.94,NW,316,2.0,2.0,83,0.00,,,0.00,meteobridge,2013-09-05 01:18:00,
2013-09-04 21:24:00,65.3,59.7,29.94,NW,311,0.9,0.9,82,0.00,,,0.00,meteobridge,2013-09-05 01:24:00,
2013-09-04 21:30:00,65.5,59.5,29.94,West,278,0.0,0.9,81,0.00,,,0.00,meteobridge,2013-09-05 01:30:00,
2013-09-04 21:37:00,65.8,59.5,29.94,NW,304,0.0,2.0,80,0.00,,,0.00,meteobridge,2013-09-05 01:37:00,
2013-09-04 21:43:00,65.8,59.2,29.94,NW,314,0.0,0.9,79,0.00,,,0.00,meteobridge,2013-09-05 01:43:00,
2013-09-04 21:49:00,65.8,59.2,29.94,NNW,341,0.0,0.9,79,0.00,,,0.00,meteobridge,2013-09-05 01:49:00,
2013-09-04 21:55:00,65.8,59.2,29.94,North,349,0.0,0.0,79,0.00,,,0.00,meteobridge,2013-09-05 01:55:00,
2013-09-04 22:01:00,65.3,59.0,29.95,North,349,0.0,0.9,80,0.00,,,0.00,meteobridge,2013-09-05 02:01:00,
2013-09-04 22:07:00,64.9,59.0,29.95,WNW,301,0.0,2.0,81,0.00,,,0.00,meteobridge,2013-09-05 02:07:00,
2013-09-04 22:13:00,64.8,58.8,29.95,North,352,0.0,0.9,81,0.00,,,0.00,meteobridge,2013-09-05 02:13:00,
2013-09-04 22:20:00,64.8,59.2,29.95,West,277,0.0,2.0,82,0.00,,,0.00,meteobridge,2013-09-05 02:20:00,
2013-09-04 22:26:00,64.9,59.0,29.94,WNW,297,0.9,2.0,81,0.00,,,0.00,meteobridge,2013-09-05 02:26:00,
2013-09-04 22:33:00,65.1,58.8,29.94,NW,326,0.0,0.0,80,0.00,,,0.00,meteobridge,2013-09-05 02:33:00,
2013-09-04 22:39:00,65.3,58.6,29.94,NNW,342,0.0,2.9,79,0.00,,,0.00,meteobridge,2013-09-05 02:39:00,
2013-09-04 22:45:00,65.8,58.8,29.94,WNW,285,0.0,2.9,78,0.00,,,0.00,meteobridge,2013-09-05 02:45:00,
2013-09-04 22:51:00,65.7,58.6,29.94,North,0,0.0,2.0,78,0.00,,,0.00,meteobridge,2013-09-05 02:51:00,
2013-09-04 22:58:00,65.7,58.6,29.94,West,271,0.0,2.9,78,0.00,,,0.00,meteobridge,2013-09-05 02:58:00,
2013-09-04 23:04:00,65.7,58.6,29.95,WNW,282,0.0,2.0,78,0.00,,,0.00,meteobridge,2013-09-05 03:04:00,
2013-09-04 23:10:00,65.8,58.5,29.95,North,349,0.0,0.9,77,0.00,,,0.00,meteobridge,2013-09-05 03:10:00,
2013-09-04 23:16:00,65.8,58.5,29.94,WSW,239,0.0,0.9,77,0.00,,,0.00,meteobridge,2013-09-05 03:16:00,
2013-09-04 23:22:00,65.7,58.6,29.94,NNW,335,0.0,0.0,78,0.00,,,0.00,meteobridge,2013-09-05 03:22:00,
2013-09-04 23:29:00,65.3,58.6,29.94,NNW,333,0.0,0.0,79,0.00,,,0.00,meteobridge,2013-09-05 03:29:00,
2013-09-04 23:35:00,64.9,58.3,29.94,NNE,19,0.0,0.9,79,0.00,,,0.00,meteobridge,2013-09-05 03:35:00,
2013-09-04 23:41:00,64.9,58.3,29.94,WNW,285,0.0,2.9,79,0.00,,,0.00,meteobridge,2013-09-05 03:41:00,
2013-09-04 23:48:00,64.8,58.1,29.94,WSW,250,0.0,0.0,79,0.00,,,0.00,meteobridge,2013-09-05 03:48:00,
2013-09-04 23:54:00,64.8,58.1,29.94,NW,323,0.0,2.0,79,0.00,,,0.00,meteobridge,2013-09-05 03:54:00,